sensor_id;sensor_type;location;lat;lon;timestamp;P1;durP1;ratioP1;P2;durP2;ratioP2
55007;SDS011;40902;45.116;21.296;2023-03-14T00:00:55;6.05;;;3.70;;
55007;SDS011;40902;45.116;21.296;2023-03-14T00:03:21;5.35;;;4.00;;
55007;SDS011;40902;45.116;21.296;2023-03-14T00:05:47;7.55;;;4.22;;
55007;SDS011;40902;45.116;21.296;2023-03-14T00:08:13;5.55;;;4.03;;
55007;SDS011;40902;45.116;21.296;2023-03-14T00:10:38;7.47;;;4.13;;
55007;SDS011;40902;45.116;21.296;2023-03-14T00:13:04;6.13;;;3.90;;
55007;SDS011;40902;45.116;21.296;2023-03-14T00:15:31;7.50;;;4.43;;
55007;SDS011;40902;45.116;21.296;2023-03-14T00:17:58;6.65;;;4.47;;
55007;SDS011;40902;45.116;21.296;2023-03-14T00:20:24;6.07;;;4.32;;
55007;SDS011;40902;45.116;21.296;2023-03-14T00:22:50;6.43;;;4.20;;
55007;SDS011;40902;45.116;21.296;2023-03-14T00:25:16;6.15;;;4.30;;
55007;SDS011;40902;45.116;21.296;2023-03-14T00:27:42;5.57;;;3.72;;
55007;SDS011;40902;45.116;21.296;2023-03-14T00:30:08;6.28;;;3.95;;
55007;SDS011;40902;45.116;21.296;2023-03-14T00:32:35;6.70;;;4.43;;
55007;SDS011;40902;45.116;21.296;2023-03-14T00:35:00;5.90;;;4.38;;
55007;SDS011;40902;45.116;21.296;2023-03-14T00:37:28;6.90;;;3.95;;
55007;SDS011;40902;45.116;21.296;2023-03-14T00:39:54;6.80;;;3.97;;
55007;SDS011;40902;45.116;21.296;2023-03-14T00:42:19;6.13;;;4.40;;
55007;SDS011;40902;45.116;21.296;2023-03-14T00:44:45;5.95;;;4.00;;
55007;SDS011;40902;45.116;21.296;2023-03-14T00:47:11;6.53;;;4.43;;
55007;SDS011;40902;45.116;21.296;2023-03-14T00:49:36;6.15;;;4.43;;
55007;SDS011;40902;45.116;21.296;2023-03-14T00:52:02;7.25;;;4.40;;
55007;SDS011;40902;45.116;21.296;2023-03-14T00:54:28;5.70;;;3.90;;
55007;SDS011;40902;45.116;21.296;2023-03-14T00:56:54;6.45;;;4.47;;
55007;SDS011;40902;45.116;21.296;2023-03-14T00:59:20;6.03;;;3.92;;
55007;SDS011;40902;45.116;21.296;2023-03-14T01:01:46;5.90;;;4.15;;
55007;SDS011;40902;45.116;21.296;2023-03-14T01:04:11;5.93;;;4.00;;
55007;SDS011;40902;45.116;21.296;2023-03-14T01:06:38;5.30;;;3.80;;
55007;SDS011;40902;45.116;21.296;2023-03-14T01:09:04;5.82;;;4.22;;
55007;SDS011;40902;45.116;21.296;2023-03-14T01:11:31;5.57;;;3.72;;
55007;SDS011;40902;45.116;21.296;2023-03-14T01:13:58;6.35;;;3.50;;
55007;SDS011;40902;45.116;21.296;2023-03-14T01:16:25;5.47;;;3.85;;
55007;SDS011;40902;45.116;21.296;2023-03-14T01:18:52;5.50;;;3.58;;
55007;SDS011;40902;45.116;21.296;2023-03-14T01:21:28;7.15;;;3.95;;
55007;SDS011;40902;45.116;21.296;2023-03-14T01:23:58;6.32;;;3.92;;
55007;SDS011;40902;45.116;21.296;2023-03-14T01:26:26;4.57;;;3.10;;
55007;SDS011;40902;45.116;21.296;2023-03-14T01:28:54;5.57;;;3.63;;
55007;SDS011;40902;45.116;21.296;2023-03-14T01:31:20;6.13;;;3.92;;
55007;SDS011;40902;45.116;21.296;2023-03-14T01:33:46;5.57;;;3.40;;
55007;SDS011;40902;45.116;21.296;2023-03-14T01:36:12;5.03;;;3.70;;
55007;SDS011;40902;45.116;21.296;2023-03-14T01:38:39;4.95;;;3.63;;
55007;SDS011;40902;45.116;21.296;2023-03-14T01:41:05;6.25;;;3.90;;
55007;SDS011;40902;45.116;21.296;2023-03-14T01:43:32;5.68;;;3.83;;
55007;SDS011;40902;45.116;21.296;2023-03-14T01:48:35;6.35;;;3.65;;
55007;SDS011;40902;45.116;21.296;2023-03-14T01:51:08;4.65;;;3.42;;
55007;SDS011;40902;45.116;21.296;2023-03-14T01:53:36;5.13;;;3.58;;
55007;SDS011;40902;45.116;21.296;2023-03-14T01:56:04;5.00;;;3.50;;
55007;SDS011;40902;45.116;21.296;2023-03-14T01:58:31;5.28;;;3.30;;
55007;SDS011;40902;45.116;21.296;2023-03-14T02:01:01;4.85;;;3.35;;
55007;SDS011;40902;45.116;21.296;2023-03-14T02:03:28;5.20;;;3.10;;
55007;SDS011;40902;45.116;21.296;2023-03-14T02:05:56;8.07;;;3.92;;
55007;SDS011;40902;45.116;21.296;2023-03-14T02:08:29;7.18;;;3.20;;
55007;SDS011;40902;45.116;21.296;2023-03-14T02:10:56;6.22;;;3.42;;
55007;SDS011;40902;45.116;21.296;2023-03-14T02:13:22;5.00;;;3.10;;
55007;SDS011;40902;45.116;21.296;2023-03-14T02:15:48;4.50;;;3.35;;
55007;SDS011;40902;45.116;21.296;2023-03-14T02:18:14;5.53;;;3.70;;
55007;SDS011;40902;45.116;21.296;2023-03-14T02:23:53;6.10;;;3.70;;
55007;SDS011;40902;45.116;21.296;2023-03-14T02:26:22;5.38;;;3.10;;
55007;SDS011;40902;45.116;21.296;2023-03-14T02:28:56;4.63;;;3.08;;
55007;SDS011;40902;45.116;21.296;2023-03-14T02:31:22;6.47;;;3.85;;
55007;SDS011;40902;45.116;21.296;2023-03-14T02:33:48;5.60;;;3.17;;
55007;SDS011;40902;45.116;21.296;2023-03-14T02:36:15;5.07;;;3.20;;
55007;SDS011;40902;45.116;21.296;2023-03-14T02:38:58;4.57;;;3.50;;
55007;SDS011;40902;45.116;21.296;2023-03-14T02:41:31;5.35;;;3.35;;
55007;SDS011;40902;45.116;21.296;2023-03-14T02:43:57;5.18;;;3.10;;
55007;SDS011;40902;45.116;21.296;2023-03-14T02:46:23;5.55;;;3.40;;
55007;SDS011;40902;45.116;21.296;2023-03-14T02:48:53;6.78;;;3.42;;
55007;SDS011;40902;45.116;21.296;2023-03-14T02:51:26;5.95;;;3.28;;
55007;SDS011;40902;45.116;21.296;2023-03-14T02:53:53;4.45;;;3.20;;
55007;SDS011;40902;45.116;21.296;2023-03-14T02:56:19;5.57;;;3.25;;
55007;SDS011;40902;45.116;21.296;2023-03-14T02:58:45;5.55;;;3.00;;
55007;SDS011;40902;45.116;21.296;2023-03-14T03:01:11;5.32;;;3.60;;
55007;SDS011;40902;45.116;21.296;2023-03-14T03:03:36;6.63;;;2.90;;
55007;SDS011;40902;45.116;21.296;2023-03-14T03:06:02;3.80;;;3.00;;
55007;SDS011;40902;45.116;21.296;2023-03-14T03:08:28;5.90;;;3.30;;
55007;SDS011;40902;45.116;21.296;2023-03-14T03:10:54;5.13;;;3.20;;
55007;SDS011;40902;45.116;21.296;2023-03-14T03:13:22;5.72;;;3.50;;
55007;SDS011;40902;45.116;21.296;2023-03-14T03:15:48;5.90;;;3.40;;
55007;SDS011;40902;45.116;21.296;2023-03-14T03:18:13;5.68;;;3.38;;
55007;SDS011;40902;45.116;21.296;2023-03-14T03:20:39;4.57;;;3.25;;
55007;SDS011;40902;45.116;21.296;2023-03-14T03:23:05;6.68;;;3.45;;
55007;SDS011;40902;45.116;21.296;2023-03-14T03:25:31;4.82;;;3.22;;
55007;SDS011;40902;45.116;21.296;2023-03-14T03:27:57;7.03;;;3.90;;
55007;SDS011;40902;45.116;21.296;2023-03-14T03:30:23;4.90;;;3.47;;
55007;SDS011;40902;45.116;21.296;2023-03-14T03:32:49;5.03;;;3.60;;
55007;SDS011;40902;45.116;21.296;2023-03-14T03:35:14;5.90;;;4.00;;
55007;SDS011;40902;45.116;21.296;2023-03-14T03:37:40;5.88;;;4.20;;
55007;SDS011;40902;45.116;21.296;2023-03-14T03:40:06;5.35;;;3.60;;
55007;SDS011;40902;45.116;21.296;2023-03-14T03:42:33;5.38;;;3.60;;
55007;SDS011;40902;45.116;21.296;2023-03-14T03:45:00;5.90;;;3.75;;
55007;SDS011;40902;45.116;21.296;2023-03-14T03:47:28;7.47;;;4.03;;
55007;SDS011;40902;45.116;21.296;2023-03-14T03:49:55;5.95;;;3.42;;
55007;SDS011;40902;45.116;21.296;2023-03-14T03:52:21;5.22;;;3.55;;
55007;SDS011;40902;45.116;21.296;2023-03-14T03:54:47;6.30;;;4.28;;
55007;SDS011;40902;45.116;21.296;2023-03-14T03:57:12;7.25;;;4.60;;
55007;SDS011;40902;45.116;21.296;2023-03-14T03:59:38;8.65;;;4.95;;
55007;SDS011;40902;45.116;21.296;2023-03-14T04:02:05;7.45;;;4.90;;
55007;SDS011;40902;45.116;21.296;2023-03-14T04:04:31;9.02;;;5.25;;
55007;SDS011;40902;45.116;21.296;2023-03-14T04:06:57;7.10;;;5.13;;
55007;SDS011;40902;45.116;21.296;2023-03-14T04:09:22;7.15;;;5.35;;
55007;SDS011;40902;45.116;21.296;2023-03-14T04:11:48;6.97;;;4.88;;
55007;SDS011;40902;45.116;21.296;2023-03-14T04:14:14;6.55;;;4.55;;
55007;SDS011;40902;45.116;21.296;2023-03-14T04:16:40;6.45;;;4.30;;
55007;SDS011;40902;45.116;21.296;2023-03-14T04:19:06;7.60;;;4.68;;
55007;SDS011;40902;45.116;21.296;2023-03-14T04:21:31;5.70;;;4.05;;
55007;SDS011;40902;45.116;21.296;2023-03-14T04:23:57;6.32;;;4.47;;
55007;SDS011;40902;45.116;21.296;2023-03-14T04:26:23;5.78;;;4.00;;
55007;SDS011;40902;45.116;21.296;2023-03-14T04:28:48;5.85;;;3.65;;
55007;SDS011;40902;45.116;21.296;2023-03-14T04:31:15;5.35;;;3.60;;
55007;SDS011;40902;45.116;21.296;2023-03-14T04:33:43;4.53;;;3.35;;
55007;SDS011;40902;45.116;21.296;2023-03-14T04:36:09;5.22;;;3.97;;
55007;SDS011;40902;45.116;21.296;2023-03-14T04:38:36;6.35;;;3.42;;
55007;SDS011;40902;45.116;21.296;2023-03-14T04:41:01;7.10;;;3.90;;
55007;SDS011;40902;45.116;21.296;2023-03-14T04:43:27;7.07;;;3.70;;
55007;SDS011;40902;45.116;21.296;2023-03-14T04:45:54;5.72;;;3.70;;
55007;SDS011;40902;45.116;21.296;2023-03-14T04:48:21;7.78;;;3.45;;
55007;SDS011;40902;45.116;21.296;2023-03-14T04:50:47;5.50;;;3.85;;
55007;SDS011;40902;45.116;21.296;2023-03-14T04:53:14;6.38;;;3.95;;
55007;SDS011;40902;45.116;21.296;2023-03-14T04:55:40;6.32;;;3.53;;
55007;SDS011;40902;45.116;21.296;2023-03-14T04:58:06;4.60;;;3.67;;
55007;SDS011;40902;45.116;21.296;2023-03-14T05:00:32;6.20;;;4.03;;
55007;SDS011;40902;45.116;21.296;2023-03-14T05:02:57;6.07;;;3.85;;
55007;SDS011;40902;45.116;21.296;2023-03-14T05:05:23;6.57;;;4.30;;
55007;SDS011;40902;45.116;21.296;2023-03-14T05:07:49;6.28;;;4.13;;
55007;SDS011;40902;45.116;21.296;2023-03-14T05:10:15;9.07;;;3.67;;
55007;SDS011;40902;45.116;21.296;2023-03-14T05:12:41;6.18;;;3.70;;
55007;SDS011;40902;45.116;21.296;2023-03-14T05:15:07;5.55;;;3.83;;
55007;SDS011;40902;45.116;21.296;2023-03-14T05:17:33;7.30;;;4.22;;
55007;SDS011;40902;45.116;21.296;2023-03-14T05:19:59;7.05;;;4.50;;
55007;SDS011;40902;45.116;21.296;2023-03-14T05:22:25;5.80;;;4.05;;
55007;SDS011;40902;45.116;21.296;2023-03-14T05:24:50;5.65;;;3.53;;
55007;SDS011;40902;45.116;21.296;2023-03-14T05:27:18;5.32;;;3.42;;
55007;SDS011;40902;45.116;21.296;2023-03-14T05:29:44;5.00;;;3.80;;
55007;SDS011;40902;45.116;21.296;2023-03-14T05:32:09;5.95;;;3.70;;
55007;SDS011;40902;45.116;21.296;2023-03-14T05:34:35;6.68;;;3.65;;
55007;SDS011;40902;45.116;21.296;2023-03-14T05:37:01;5.07;;;3.60;;
55007;SDS011;40902;45.116;21.296;2023-03-14T05:39:26;5.95;;;3.50;;
55007;SDS011;40902;45.116;21.296;2023-03-14T05:41:52;5.95;;;4.13;;
55007;SDS011;40902;45.116;21.296;2023-03-14T05:44:20;8.27;;;3.38;;
55007;SDS011;40902;45.116;21.296;2023-03-14T05:46:46;5.65;;;3.50;;
55007;SDS011;40902;45.116;21.296;2023-03-14T05:49:12;6.45;;;3.70;;
55007;SDS011;40902;45.116;21.296;2023-03-14T05:51:37;5.63;;;3.60;;
55007;SDS011;40902;45.116;21.296;2023-03-14T05:54:03;6.53;;;3.88;;
55007;SDS011;40902;45.116;21.296;2023-03-14T05:56:29;7.57;;;3.85;;
55007;SDS011;40902;45.116;21.296;2023-03-14T05:58:54;5.13;;;3.80;;
55007;SDS011;40902;45.116;21.296;2023-03-14T06:01:20;5.63;;;3.40;;
55007;SDS011;40902;45.116;21.296;2023-03-14T06:03:46;6.53;;;3.90;;
55007;SDS011;40902;45.116;21.296;2023-03-14T06:06:11;4.93;;;3.42;;
55007;SDS011;40902;45.116;21.296;2023-03-14T06:08:37;6.55;;;4.10;;
55007;SDS011;40902;45.116;21.296;2023-03-14T06:11:03;6.00;;;3.88;;
55007;SDS011;40902;45.116;21.296;2023-03-14T06:13:29;6.10;;;4.20;;
55007;SDS011;40902;45.116;21.296;2023-03-14T06:15:55;6.15;;;4.03;;
55007;SDS011;40902;45.116;21.296;2023-03-14T06:18:20;7.30;;;4.35;;
55007;SDS011;40902;45.116;21.296;2023-03-14T06:20:46;5.60;;;3.50;;
55007;SDS011;40902;45.116;21.296;2023-03-14T06:23:12;4.97;;;3.45;;
55007;SDS011;40902;45.116;21.296;2023-03-14T06:25:37;6.75;;;3.67;;
55007;SDS011;40902;45.116;21.296;2023-03-14T06:28:03;8.23;;;3.92;;
55007;SDS011;40902;45.116;21.296;2023-03-14T06:30:29;5.70;;;3.40;;
55007;SDS011;40902;45.116;21.296;2023-03-14T06:32:55;5.35;;;4.05;;
55007;SDS011;40902;45.116;21.296;2023-03-14T06:35:21;6.38;;;4.38;;
55007;SDS011;40902;45.116;21.296;2023-03-14T06:37:47;8.50;;;4.43;;
55007;SDS011;40902;45.116;21.296;2023-03-14T06:40:13;5.95;;;4.20;;
55007;SDS011;40902;45.116;21.296;2023-03-14T06:42:42;6.38;;;3.92;;
55007;SDS011;40902;45.116;21.296;2023-03-14T06:45:11;5.05;;;3.83;;
55007;SDS011;40902;45.116;21.296;2023-03-14T06:47:37;5.35;;;3.80;;
55007;SDS011;40902;45.116;21.296;2023-03-14T06:50:06;8.63;;;4.45;;
55007;SDS011;40902;45.116;21.296;2023-03-14T06:52:34;7.40;;;4.70;;
55007;SDS011;40902;45.116;21.296;2023-03-14T06:55:00;6.13;;;4.43;;
55007;SDS011;40902;45.116;21.296;2023-03-14T06:57:26;6.05;;;4.47;;
55007;SDS011;40902;45.116;21.296;2023-03-14T06:59:51;6.47;;;4.38;;
55007;SDS011;40902;45.116;21.296;2023-03-14T07:02:17;7.15;;;4.25;;
55007;SDS011;40902;45.116;21.296;2023-03-14T07:04:43;7.25;;;4.47;;
55007;SDS011;40902;45.116;21.296;2023-03-14T07:07:09;5.90;;;4.22;;
55007;SDS011;40902;45.116;21.296;2023-03-14T07:09:35;5.80;;;3.92;;
55007;SDS011;40902;45.116;21.296;2023-03-14T07:12:01;9.20;;;4.57;;
55007;SDS011;40902;45.116;21.296;2023-03-14T07:14:29;5.93;;;4.00;;
55007;SDS011;40902;45.116;21.296;2023-03-14T07:16:55;5.68;;;3.70;;
55007;SDS011;40902;45.116;21.296;2023-03-14T07:19:20;5.45;;;3.72;;
55007;SDS011;40902;45.116;21.296;2023-03-14T07:21:46;5.68;;;3.75;;
55007;SDS011;40902;45.116;21.296;2023-03-14T07:24:12;6.47;;;4.13;;
55007;SDS011;40902;45.116;21.296;2023-03-14T07:26:38;7.45;;;4.50;;
55007;SDS011;40902;45.116;21.296;2023-03-14T07:29:07;8.15;;;4.68;;
55007;SDS011;40902;45.116;21.296;2023-03-14T07:31:32;5.75;;;3.95;;
55007;SDS011;40902;45.116;21.296;2023-03-14T07:33:58;6.72;;;3.60;;
55007;SDS011;40902;45.116;21.296;2023-03-14T07:36:24;6.35;;;4.40;;
55007;SDS011;40902;45.116;21.296;2023-03-14T07:38:49;5.13;;;3.63;;
55007;SDS011;40902;45.116;21.296;2023-03-14T07:41:16;7.78;;;4.22;;
55007;SDS011;40902;45.116;21.296;2023-03-14T07:43:41;6.18;;;3.90;;
55007;SDS011;40902;45.116;21.296;2023-03-14T07:46:07;5.72;;;3.60;;
55007;SDS011;40902;45.116;21.296;2023-03-14T07:48:34;6.45;;;3.67;;
55007;SDS011;40902;45.116;21.296;2023-03-14T07:51:00;6.97;;;4.20;;
55007;SDS011;40902;45.116;21.296;2023-03-14T07:53:26;8.48;;;3.88;;
55007;SDS011;40902;45.116;21.296;2023-03-14T07:55:52;8.18;;;3.80;;
55007;SDS011;40902;45.116;21.296;2023-03-14T07:58:19;4.45;;;3.33;;
55007;SDS011;40902;45.116;21.296;2023-03-14T08:00:47;8.98;;;4.18;;
55007;SDS011;40902;45.116;21.296;2023-03-14T08:03:13;5.78;;;3.72;;
55007;SDS011;40902;45.116;21.296;2023-03-14T08:05:39;6.75;;;3.65;;
55007;SDS011;40902;45.116;21.296;2023-03-14T08:08:06;6.10;;;3.60;;
55007;SDS011;40902;45.116;21.296;2023-03-14T08:10:32;5.90;;;3.60;;
55007;SDS011;40902;45.116;21.296;2023-03-14T08:12:58;6.10;;;3.40;;
55007;SDS011;40902;45.116;21.296;2023-03-14T08:15:25;5.97;;;3.50;;
55007;SDS011;40902;45.116;21.296;2023-03-14T08:17:51;6.07;;;3.65;;
55007;SDS011;40902;45.116;21.296;2023-03-14T08:20:18;5.55;;;3.88;;
55007;SDS011;40902;45.116;21.296;2023-03-14T08:22:46;8.18;;;4.00;;
55007;SDS011;40902;45.116;21.296;2023-03-14T08:25:12;5.57;;;4.00;;
55007;SDS011;40902;45.116;21.296;2023-03-14T08:27:38;5.50;;;4.30;;
55007;SDS011;40902;45.116;21.296;2023-03-14T08:30:07;5.95;;;4.30;;
55007;SDS011;40902;45.116;21.296;2023-03-14T08:32:35;5.20;;;3.80;;
55007;SDS011;40902;45.116;21.296;2023-03-14T08:35:01;6.20;;;3.50;;
55007;SDS011;40902;45.116;21.296;2023-03-14T08:37:28;5.60;;;3.60;;
55007;SDS011;40902;45.116;21.296;2023-03-14T08:39:53;4.78;;;3.55;;
55007;SDS011;40902;45.116;21.296;2023-03-14T08:42:19;5.22;;;3.40;;
55007;SDS011;40902;45.116;21.296;2023-03-14T08:44:45;4.40;;;3.65;;
55007;SDS011;40902;45.116;21.296;2023-03-14T08:47:10;5.93;;;3.72;;
55007;SDS011;40902;45.116;21.296;2023-03-14T08:49:36;6.80;;;3.97;;
55007;SDS011;40902;45.116;21.296;2023-03-14T08:52:03;6.72;;;4.03;;
55007;SDS011;40902;45.116;21.296;2023-03-14T08:54:29;5.05;;;3.28;;
55007;SDS011;40902;45.116;21.296;2023-03-14T08:56:55;6.65;;;4.20;;
55007;SDS011;40902;45.116;21.296;2023-03-14T08:59:22;6.82;;;4.28;;
55007;SDS011;40902;45.116;21.296;2023-03-14T09:01:47;5.55;;;3.75;;
55007;SDS011;40902;45.116;21.296;2023-03-14T09:04:13;5.50;;;3.50;;
55007;SDS011;40902;45.116;21.296;2023-03-14T09:06:39;6.95;;;3.33;;
55007;SDS011;40902;45.116;21.296;2023-03-14T09:09:05;6.47;;;3.60;;
55007;SDS011;40902;45.116;21.296;2023-03-14T09:11:31;4.82;;;3.38;;
55007;SDS011;40902;45.116;21.296;2023-03-14T09:13:57;6.72;;;3.88;;
55007;SDS011;40902;45.116;21.296;2023-03-14T09:16:23;7.22;;;3.35;;
55007;SDS011;40902;45.116;21.296;2023-03-14T09:18:49;6.80;;;3.60;;
55007;SDS011;40902;45.116;21.296;2023-03-14T09:21:15;6.25;;;3.80;;
55007;SDS011;40902;45.116;21.296;2023-03-14T09:23:41;5.25;;;3.55;;
55007;SDS011;40902;45.116;21.296;2023-03-14T09:26:07;7.15;;;3.38;;
55007;SDS011;40902;45.116;21.296;2023-03-14T09:28:33;5.13;;;3.45;;
55007;SDS011;40902;45.116;21.296;2023-03-14T09:31:05;6.13;;;3.50;;
55007;SDS011;40902;45.116;21.296;2023-03-14T09:33:35;5.82;;;3.10;;
55007;SDS011;40902;45.116;21.296;2023-03-14T09:36:01;7.35;;;3.83;;
55007;SDS011;40902;45.116;21.296;2023-03-14T09:38:28;5.70;;;3.10;;
55007;SDS011;40902;45.116;21.296;2023-03-14T09:40:54;7.18;;;4.07;;
55007;SDS011;40902;45.116;21.296;2023-03-14T09:43:22;6.35;;;3.92;;
55007;SDS011;40902;45.116;21.296;2023-03-14T09:45:50;5.28;;;3.05;;
55007;SDS011;40902;45.116;21.296;2023-03-14T09:48:21;5.20;;;2.95;;
55007;SDS011;40902;45.116;21.296;2023-03-14T09:50:51;8.80;;;3.33;;
55007;SDS011;40902;45.116;21.296;2023-03-14T09:53:18;7.25;;;3.78;;
55007;SDS011;40902;45.116;21.296;2023-03-14T09:55:49;6.43;;;3.60;;
55007;SDS011;40902;45.116;21.296;2023-03-14T09:58:18;6.45;;;3.17;;
55007;SDS011;40902;45.116;21.296;2023-03-14T10:00:45;6.65;;;3.15;;
55007;SDS011;40902;45.116;21.296;2023-03-14T10:05:37;4.30;;;3.10;;
55007;SDS011;40902;45.116;21.296;2023-03-14T10:08:04;4.80;;;3.30;;
55007;SDS011;40902;45.116;21.296;2023-03-14T10:10:30;6.75;;;2.90;;
55007;SDS011;40902;45.116;21.296;2023-03-14T10:12:57;5.88;;;3.13;;
55007;SDS011;40902;45.116;21.296;2023-03-14T10:15:26;8.02;;;2.83;;
55007;SDS011;40902;45.116;21.296;2023-03-14T10:17:54;6.50;;;2.88;;
55007;SDS011;40902;45.116;21.296;2023-03-14T10:20:33;8.38;;;2.92;;
55007;SDS011;40902;45.116;21.296;2023-03-14T10:23:05;4.43;;;3.22;;
55007;SDS011;40902;45.116;21.296;2023-03-14T10:25:45;5.88;;;3.35;;
55007;SDS011;40902;45.116;21.296;2023-03-14T10:28:24;5.00;;;2.42;;
55007;SDS011;40902;45.116;21.296;2023-03-14T10:30:51;4.45;;;2.88;;
55007;SDS011;40902;45.116;21.296;2023-03-14T10:35:58;7.15;;;2.90;;
55007;SDS011;40902;45.116;21.296;2023-03-14T10:38:28;4.70;;;2.83;;
55007;SDS011;40902;45.116;21.296;2023-03-14T10:40:55;5.38;;;2.72;;
55007;SDS011;40902;45.116;21.296;2023-03-14T10:43:30;5.18;;;3.35;;
55007;SDS011;40902;45.116;21.296;2023-03-14T10:45:59;4.90;;;3.13;;
55007;SDS011;40902;45.116;21.296;2023-03-14T10:48:35;4.70;;;2.97;;
55007;SDS011;40902;45.116;21.296;2023-03-14T10:51:04;6.20;;;2.88;;
55007;SDS011;40902;45.116;21.296;2023-03-14T10:53:49;8.75;;;2.97;;
55007;SDS011;40902;45.116;21.296;2023-03-14T10:56:24;4.93;;;2.72;;
55007;SDS011;40902;45.116;21.296;2023-03-14T10:58:51;5.00;;;2.90;;
55007;SDS011;40902;45.116;21.296;2023-03-14T11:06:58;4.82;;;3.30;;
55007;SDS011;40902;45.116;21.296;2023-03-14T11:12:01;6.07;;;3.70;;
55007;SDS011;40902;45.116;21.296;2023-03-14T11:14:41;5.72;;;3.65;;
55007;SDS011;40902;45.116;21.296;2023-03-14T11:22:18;9.68;;;4.95;;
55007;SDS011;40902;45.116;21.296;2023-03-14T11:33:02;8.25;;;4.32;;
55007;SDS011;40902;45.116;21.296;2023-03-14T11:35:30;11.13;;;5.68;;
55007;SDS011;40902;45.116;21.296;2023-03-14T11:40:54;7.50;;;4.60;;
55007;SDS011;40902;45.116;21.296;2023-03-14T11:43:35;7.75;;;4.95;;
55007;SDS011;40902;45.116;21.296;2023-03-14T11:46:09;6.70;;;3.30;;
55007;SDS011;40902;45.116;21.296;2023-03-14T11:51:43;5.15;;;3.60;;
55007;SDS011;40902;45.116;21.296;2023-03-14T11:54:16;7.80;;;3.85;;
55007;SDS011;40902;45.116;21.296;2023-03-14T11:57:09;6.32;;;3.55;;
55007;SDS011;40902;45.116;21.296;2023-03-14T11:59:45;7.10;;;3.85;;
55007;SDS011;40902;45.116;21.296;2023-03-14T12:13:04;8.05;;;4.47;;
55007;SDS011;40902;45.116;21.296;2023-03-14T12:15:36;8.48;;;4.60;;
55007;SDS011;40902;45.116;21.296;2023-03-14T12:18:14;6.18;;;4.30;;
55007;SDS011;40902;45.116;21.296;2023-03-14T12:21:00;5.93;;;3.80;;
55007;SDS011;40902;45.116;21.296;2023-03-14T12:23:28;6.78;;;5.00;;
55007;SDS011;40902;45.116;21.296;2023-03-14T12:28:42;6.72;;;3.63;;
55007;SDS011;40902;45.116;21.296;2023-03-14T12:34:02;7.45;;;4.45;;
55007;SDS011;40902;45.116;21.296;2023-03-14T12:41:43;5.32;;;3.28;;
55007;SDS011;40902;45.116;21.296;2023-03-14T12:46:57;7.03;;;4.07;;
55007;SDS011;40902;45.116;21.296;2023-03-14T12:49:41;6.68;;;3.83;;
55007;SDS011;40902;45.116;21.296;2023-03-14T12:52:14;6.82;;;4.10;;
55007;SDS011;40902;45.116;21.296;2023-03-14T12:57:36;6.75;;;4.55;;
55007;SDS011;40902;45.116;21.296;2023-03-14T13:00:33;6.68;;;4.75;;
55007;SDS011;40902;45.116;21.296;2023-03-14T13:03:01;8.38;;;5.07;;
55007;SDS011;40902;45.116;21.296;2023-03-14T13:05:28;8.40;;;4.78;;
55007;SDS011;40902;45.116;21.296;2023-03-14T13:10:38;6.68;;;4.65;;
55007;SDS011;40902;45.116;21.296;2023-03-14T13:13:19;6.22;;;4.10;;
55007;SDS011;40902;45.116;21.296;2023-03-14T13:15:57;6.38;;;4.45;;
55007;SDS011;40902;45.116;21.296;2023-03-14T13:18:30;7.72;;;4.00;;
55007;SDS011;40902;45.116;21.296;2023-03-14T13:21:01;5.30;;;3.58;;
55007;SDS011;40902;45.116;21.296;2023-03-14T13:23:40;7.95;;;4.05;;
55007;SDS011;40902;45.116;21.296;2023-03-14T13:26:09;8.88;;;4.63;;
55007;SDS011;40902;45.116;21.296;2023-03-14T13:28:38;6.60;;;4.38;;
55007;SDS011;40902;45.116;21.296;2023-03-14T13:31:04;7.72;;;4.55;;
55007;SDS011;40902;45.116;21.296;2023-03-14T13:33:31;5.43;;;3.80;;
55007;SDS011;40902;45.116;21.296;2023-03-14T13:35:59;5.97;;;4.20;;
55007;SDS011;40902;45.116;21.296;2023-03-14T13:38:30;7.35;;;4.68;;
55007;SDS011;40902;45.116;21.296;2023-03-14T13:40:58;6.00;;;3.88;;
55007;SDS011;40902;45.116;21.296;2023-03-14T13:43:27;9.88;;;3.88;;
55007;SDS011;40902;45.116;21.296;2023-03-14T13:46:03;8.52;;;4.07;;
55007;SDS011;40902;45.116;21.296;2023-03-14T13:48:49;6.20;;;3.67;;
55007;SDS011;40902;45.116;21.296;2023-03-14T13:51:19;6.82;;;3.50;;
55007;SDS011;40902;45.116;21.296;2023-03-14T13:53:48;5.97;;;4.13;;
55007;SDS011;40902;45.116;21.296;2023-03-14T13:56:19;11.68;;;6.70;;
55007;SDS011;40902;45.116;21.296;2023-03-14T13:58:46;7.15;;;4.68;;
55007;SDS011;40902;45.116;21.296;2023-03-14T14:03:39;6.68;;;3.78;;
55007;SDS011;40902;45.116;21.296;2023-03-14T14:08:53;7.93;;;5.78;;
55007;SDS011;40902;45.116;21.296;2023-03-14T14:11:33;7.28;;;3.88;;
55007;SDS011;40902;45.116;21.296;2023-03-14T14:16:31;6.78;;;3.92;;
55007;SDS011;40902;45.116;21.296;2023-03-14T14:18:57;5.25;;;3.88;;
55007;SDS011;40902;45.116;21.296;2023-03-14T14:21:24;5.38;;;3.88;;
55007;SDS011;40902;45.116;21.296;2023-03-14T14:23:51;6.03;;;3.50;;
55007;SDS011;40902;45.116;21.296;2023-03-14T14:26:18;6.70;;;4.35;;
55007;SDS011;40902;45.116;21.296;2023-03-14T14:28:44;5.15;;;3.85;;
55007;SDS011;40902;45.116;21.296;2023-03-14T14:36:19;8.10;;;4.25;;
55007;SDS011;40902;45.116;21.296;2023-03-14T14:38:57;6.50;;;4.28;;
55007;SDS011;40902;45.116;21.296;2023-03-14T14:41:26;7.45;;;3.83;;
55007;SDS011;40902;45.116;21.296;2023-03-14T14:43:56;6.38;;;4.43;;
55007;SDS011;40902;45.116;21.296;2023-03-14T14:46:25;6.70;;;3.70;;
55007;SDS011;40902;45.116;21.296;2023-03-14T14:48:57;27.70;;;13.00;;
55007;SDS011;40902;45.116;21.296;2023-03-14T14:51:30;19.05;;;10.52;;
55007;SDS011;40902;45.116;21.296;2023-03-14T14:54:03;8.07;;;4.93;;
55007;SDS011;40902;45.116;21.296;2023-03-14T14:57:01;7.95;;;4.25;;
55007;SDS011;40902;45.116;21.296;2023-03-14T14:59:29;6.63;;;3.92;;
55007;SDS011;40902;45.116;21.296;2023-03-14T15:01:58;10.73;;;4.60;;
55007;SDS011;40902;45.116;21.296;2023-03-14T15:04:24;9.55;;;5.57;;
55007;SDS011;40902;45.116;21.296;2023-03-14T15:06:51;13.10;;;8.10;;
55007;SDS011;40902;45.116;21.296;2023-03-14T15:09:17;9.45;;;6.15;;
55007;SDS011;40902;45.116;21.296;2023-03-14T15:11:45;7.15;;;4.50;;
55007;SDS011;40902;45.116;21.296;2023-03-14T15:14:11;7.07;;;4.88;;
55007;SDS011;40902;45.116;21.296;2023-03-14T15:16:37;9.00;;;4.53;;
55007;SDS011;40902;45.116;21.296;2023-03-14T15:19:16;9.40;;;5.10;;
55007;SDS011;40902;45.116;21.296;2023-03-14T15:21:48;7.97;;;5.15;;
55007;SDS011;40902;45.116;21.296;2023-03-14T15:24:14;8.10;;;5.15;;
55007;SDS011;40902;45.116;21.296;2023-03-14T15:26:39;8.52;;;5.47;;
55007;SDS011;40902;45.116;21.296;2023-03-14T15:29:05;8.52;;;5.95;;
55007;SDS011;40902;45.116;21.296;2023-03-14T15:31:33;13.18;;;8.55;;
55007;SDS011;40902;45.116;21.296;2023-03-14T15:34:00;10.98;;;6.30;;
55007;SDS011;40902;45.116;21.296;2023-03-14T15:36:27;7.28;;;5.15;;
55007;SDS011;40902;45.116;21.296;2023-03-14T15:38:55;5.85;;;4.00;;
55007;SDS011;40902;45.116;21.296;2023-03-14T15:41:21;8.38;;;5.90;;
55007;SDS011;40902;45.116;21.296;2023-03-14T15:43:48;12.43;;;6.47;;
55007;SDS011;40902;45.116;21.296;2023-03-14T15:46:14;8.27;;;5.40;;
55007;SDS011;40902;45.116;21.296;2023-03-14T15:48:42;10.40;;;5.57;;
55007;SDS011;40902;45.116;21.296;2023-03-14T15:51:08;8.82;;;6.05;;
55007;SDS011;40902;45.116;21.296;2023-03-14T15:53:34;8.43;;;5.38;;
55007;SDS011;40902;45.116;21.296;2023-03-14T15:56:02;8.13;;;5.70;;
55007;SDS011;40902;45.116;21.296;2023-03-14T15:58:29;7.03;;;4.72;;